Time;durP1;ratioP1;P1;durP2;ratioP2;P2;SDS_P1;SDS_P2;PMS_P1;PMS_P2;Temp;Humidity;BMP_temperature;BMP_pressure;BME280_temperature;BME280_humidity;BME280_pressure;Samples;Min_cycle;Max_cycle;Signal;HPM_P1;HPM_P2
2022/07/02 00:02:13;;;;;;;3.10;0.95;;;13.30;99.90;;;;;;4972821;28;20266;-61
2022/07/02 00:04:44;;;;;;;3.58;1.17;;;13.20;99.90;;;;;;4973288;28;20266;-62
2022/07/02 00:07:09;;;;;;;7.78;1.15;;;13.20;99.90;;;;;;4972670;28;20207;-62
2022/07/02 00:09:36;;;;;;;10.97;1.30;;;13.20;99.90;;;;;;4972790;28;20239;-62
2022/07/02 00:12:02;;;;;;;9.37;1.10;;;13.20;99.90;;;;;;4972918;28;20659;-62
2022/07/02 00:14:28;;;;;;;9.25;1.30;;;13.00;99.90;;;;;;4972892;28;20200;-62
2022/07/02 00:16:54;;;;;;;5.05;1.23;;;13.20;99.90;;;;;;4972840;28;20218;-62
2022/07/02 00:19:24;;;;;;;11.27;1.23;;;13.20;99.90;;;;;;4972455;28;20184;-61
2022/07/02 00:21:50;;;;;;;5.73;1.07;;;13.10;99.90;;;;;;4972699;28;20187;-61
2022/07/02 00:24:15;;;;;;;9.95;1.20;;;13.10;99.90;;;;;;4972931;28;20262;-62
2022/07/02 00:26:50;;;;;;;6.90;1.20;;;13.10;99.90;;;;;;4971981;28;20681;-62
2022/07/02 00:29:35;;;;;;;7.03;1.07;;;13.00;99.90;;;;;;4972280;28;20179;-61
2022/07/02 00:35:23;;;;;;;5.50;1.23;;;13.00;99.90;;;;;;4972124;28;20187;-62
2022/07/02 00:37:50;;;;;;;8.95;1.30;;;13.00;99.90;;;;;;4972597;28;20176;-62
2022/07/02 00:40:18;;;;;;;8.60;1.30;;;12.90;99.90;;;;;;4972937;28;20183;-61
2022/07/02 00:42:44;;;;;;;14.20;1.80;;;12.90;99.90;;;;;;4971975;28;20183;-62
2022/07/02 00:45:10;;;;;;;10.73;1.73;;;12.80;99.90;;;;;;4972445;28;20230;-62
2022/07/02 00:47:37;;;;;;;6.37;1.57;;;13.00;99.90;;;;;;4972498;28;20180;-63
2022/07/02 00:50:04;;;;;;;16.73;1.70;;;12.90;99.90;;;;;;4972315;28;20191;-62
2022/07/02 00:52:30;;;;;;;8.30;1.40;;;12.90;99.90;;;;;;4971877;28;20608;-63
2022/07/02 00:54:56;;;;;;;10.60;1.30;;;12.90;99.90;;;;;;4972195;28;20312;-62
2022/07/02 00:57:21;;;;;;;5.40;1.30;;;12.80;99.90;;;;;;4972549;28;20199;-62
2022/07/02 00:59:47;;;;;;;7.70;1.40;;;12.90;99.90;;;;;;4972042;28;20211;-62
2022/07/02 01:02:15;;;;;;;7.33;1.40;;;13.00;99.90;;;;;;4971872;28;20180;-66
2022/07/02 01:04:42;;;;;;;11.40;1.50;;;12.80;99.90;;;;;;4972177;28;20678;-63
2022/07/02 01:07:12;;;;;;;5.77;1.37;;;12.80;99.90;;;;;;4972144;28;20287;-62
2022/07/02 01:10:22;;;;;;;6.90;1.17;;;12.80;99.90;;;;;;4971634;28;20211;-62
2022/07/02 01:12:29;;;;;;;7.20;1.48;;;12.80;99.90;;;;;;4963788;28;20199;-62
2022/07/02 01:14:56;;;;;;;9.43;1.38;;;13.00;99.90;;;;;;4972177;28;20176;-62
2022/07/02 01:17:23;;;;;;;7.17;1.43;;;12.90;99.90;;;;;;4972020;28;20172;-63
2022/07/02 01:19:49;;;;;;;12.02;1.30;;;12.90;99.90;;;;;;4971759;28;20239;-62
2022/07/02 01:22:18;;;;;;;3.93;1.20;;;13.00;99.90;;;;;;4971914;28;20266;-62
2022/07/02 01:24:48;;;;;;;8.17;1.40;;;13.00;99.90;;;;;;4971697;28;20208;-61
2022/07/02 01:27:15;;;;;;;10.23;1.27;;;13.10;99.90;;;;;;4971549;28;20705;-62
2022/07/02 01:29:41;;;;;;;10.93;1.40;;;13.10;99.90;;;;;;4971740;28;20252;-62
2022/07/02 01:32:08;;;;;;;8.87;1.23;;;13.10;99.90;;;;;;4971685;28;20215;-62
2022/07/02 01:34:37;;;;;;;6.90;1.10;;;13.10;99.90;;;;;;4971925;28;20234;-63
2022/07/02 01:37:04;;;;;;;7.40;1.00;;;13.10;99.90;;;;;;4971367;28;20176;-63
2022/07/02 01:39:30;;;;;;;4.07;1.10;;;13.10;99.90;;;;;;4971773;28;20175;-62
2022/07/02 01:41:55;;;;;;;9.80;1.10;;;13.20;99.90;;;;;;4971658;28;20176;-62
2022/07/02 01:44:21;;;;;;;8.47;1.40;;;13.10;99.90;;;;;;4971377;28;20737;-62
2022/07/02 01:46:47;;;;;;;4.10;0.93;;;13.20;99.90;;;;;;4971068;28;20192;-62
2022/07/02 01:49:13;;;;;;;8.27;1.10;;;13.40;99.90;;;;;;4971275;28;20209;-62
2022/07/02 01:51:39;;;;;;;9.03;1.17;;;13.60;99.90;;;;;;4970112;28;20180;-62
2022/07/02 01:54:05;;;;;;;5.37;1.00;;;13.50;99.90;;;;;;4971570;28;20715;-62
2022/07/02 01:56:34;;;;;;;7.27;1.33;;;13.70;99.90;;;;;;4971602;28;20255;-62
2022/07/02 01:59:00;;;;;;;4.80;0.90;;;13.60;99.90;;;;;;4953934;28;20176;-62
2022/07/02 02:01:26;;;;;;;9.02;1.48;;;13.50;99.90;;;;;;4971795;28;20176;-62
2022/07/02 02:03:52;;;;;;;5.97;0.90;;;13.80;99.90;;;;;;4971709;28;20206;-62
2022/07/02 02:06:18;;;;;;;4.78;0.98;;;13.80;99.90;;;;;;4971209;28;20742;-62
2022/07/02 02:08:44;;;;;;;5.43;1.10;;;13.80;99.90;;;;;;4971797;28;20259;-62
2022/07/02 02:11:10;;;;;;;7.10;1.00;;;13.90;99.90;;;;;;4971348;28;20649;-62
2022/07/02 02:13:36;;;;;;;4.50;1.10;;;13.90;99.90;;;;;;4974626;28;20172;-62
2022/07/02 02:16:01;;;;;;;8.40;1.23;;;13.90;99.90;;;;;;4975011;28;20572;-62
2022/07/02 02:18:27;;;;;;;6.68;0.77;;;14.00;99.90;;;;;;4975238;28;20250;-62
2022/07/02 02:20:53;;;;;;;4.35;0.80;;;14.10;99.90;;;;;;4957871;28;20635;-62
2022/07/02 02:23:19;;;;;;;3.38;0.85;;;13.90;99.90;;;;;;4974831;28;20184;-62
2022/07/02 02:25:44;;;;;;;4.50;0.90;;;13.90;99.90;;;;;;4974363;28;20215;-62
2022/07/02 02:28:10;;;;;;;8.40;1.10;;;13.60;99.90;;;;;;4974921;28;20184;-62
2022/07/02 02:30:36;;;;;;;4.63;0.93;;;14.10;99.90;;;;;;4975055;28;20208;-62
2022/07/02 02:33:02;;;;;;;6.68;1.27;;;14.00;99.90;;;;;;4957771;28;20661;-62
2022/07/02 02:35:28;;;;;;;6.03;1.10;;;;;;;;;;4974998;28;20190;-63
2022/07/02 02:37:53;;;;;;;7.00;0.93;;;13.90;99.90;;;;;;4974274;28;20179;-63
2022/07/02 02:40:19;;;;;;;13.02;1.48;;;14.10;99.90;;;;;;4974581;28;20190;-64
2022/07/02 02:42:45;;;;;;;7.20;1.25;;;14.10;99.90;;;;;;4974829;28;20250;-64
2022/07/02 02:45:11;;;;;;;9.15;1.00;;;14.10;99.90;;;;;;4974722;28;20208;-64
2022/07/02 02:47:36;;;;;;;3.42;0.90;;;14.10;99.90;;;;;;4974389;28;20689;-64
2022/07/02 02:50:03;;;;;;;4.68;1.00;;;14.20;99.90;;;;;;4974852;28;20172;-65
2022/07/02 02:52:29;;;;;;;7.13;1.00;;;14.10;99.90;;;;;;4973483;28;20206;-64
2022/07/02 02:54:55;;;;;;;6.07;1.20;;;14.10;99.90;;;;;;4974854;28;20208;-65
2022/07/02 02:57:21;;;;;;;5.38;1.30;;;14.10;99.90;;;;;;4974685;28;20279;-63
2022/07/02 02:59:47;;;;;;;3.63;0.82;;;14.30;99.90;;;;;;4974598;28;20173;-62
2022/07/02 03:02:12;;;;;;;8.10;1.35;;;14.20;99.90;;;;;;4974867;28;20182;-62
2022/07/02 03:04:38;;;;;;;4.55;1.02;;;14.20;99.90;;;;;;4974070;28;20282;-62
2022/07/02 03:07:04;;;;;;;4.30;1.00;;;14.30;99.90;;;;;;4973751;28;20647;-65
2022/07/02 03:09:30;;;;;;;5.60;1.20;;;14.30;99.90;;;;;;4974554;28;20179;-64
2022/07/02 03:11:56;;;;;;;5.72;0.98;;;14.30;99.90;;;;;;4974068;28;20196;-65
2022/07/02 03:14:21;;;;;;;7.68;1.40;;;14.30;99.90;;;;;;4974507;28;20183;-64
2022/07/02 03:16:47;;;;;;;5.63;0.80;;;14.40;99.90;;;;;;4973903;28;20176;-65
2022/07/02 03:19:13;;;;;;;11.02;1.45;;;14.30;99.90;;;;;;4974463;28;20164;-65
2022/07/02 03:21:38;;;;;;;5.20;1.00;;;14.50;99.90;;;;;;4973482;28;20176;-65
2022/07/02 03:24:04;;;;;;;3.95;1.17;;;12.20;99.90;;;;;;4973309;28;20176;-65
2022/07/02 03:26:30;;;;;;;5.15;0.95;;;14.30;99.90;;;;;;4972559;28;20176;-64
2022/07/02 03:28:56;;;;;;;3.65;1.02;;;14.40;99.90;;;;;;4956149;28;20659;-63
2022/07/02 03:31:22;;;;;;;10.95;1.75;;;14.30;99.90;;;;;;4973674;28;20613;-63
2022/07/02 03:33:47;;;;;;;4.82;0.80;;;14.40;99.90;;;;;;4973933;28;20655;-62
2022/07/02 03:36:13;;;;;;;3.90;0.88;;;14.60;99.90;;;;;;4973268;28;20267;-62
2022/07/02 03:38:39;;;;;;;6.45;1.13;;;14.40;99.90;;;;;;4973078;28;20263;-62
2022/07/02 03:41:08;;;;;;;8.48;1.10;;;14.60;99.90;;;;;;4972907;28;20270;-62
2022/07/02 03:43:35;;;;;;;14.07;1.15;;;14.50;99.90;;;;;;4973712;28;20167;-62
2022/07/02 03:46:01;;;;;;;8.88;1.27;;;14.60;99.90;;;;;;4955871;28;20222;-62
2022/07/02 03:48:27;;;;;;;4.93;1.30;;;14.50;99.90;;;;;;4973424;28;20203;-62
2022/07/02 03:50:53;;;;;;;5.15;1.30;;;14.50;99.90;;;;;;4973587;28;20200;-63
2022/07/02 03:53:19;;;;;;;9.32;1.50;;;14.50;99.90;;;;;;4973291;28;20180;-63
2022/07/02 03:55:45;;;;;;;9.68;1.33;;;;;;;;;;4973386;28;20180;-63
2022/07/02 03:58:11;;;;;;;6.38;0.90;;;;;;;;;;4973463;28;20182;-63
2022/07/02 04:00:37;;;;;;;7.90;1.20;;;14.30;99.90;;;;;;4973419;28;20192;-63
2022/07/02 04:03:02;;;;;;;7.90;1.25;;;14.30;99.90;;;;;;4973258;28;20283;-63
2022/07/02 04:05:29;;;;;;;7.15;1.20;;;14.30;99.90;;;;;;4973277;28;20243;-63
2022/07/02 04:07:54;;;;;;;9.40;1.30;;;14.30;99.90;;;;;;4973247;28;20674;-63
2022/07/02 04:10:20;;;;;;;11.77;1.30;;;14.40;99.90;;;;;;4972602;28;20207;-62
2022/07/02 04:12:46;;;;;;;10.40;1.45;;;14.50;99.90;;;;;;4973171;28;20646;-63
2022/07/02 04:15:12;;;;;;;6.93;1.48;;;14.40;99.90;;;;;;4973102;28;20176;-63
2022/07/02 04:17:37;;;;;;;9.48;1.67;;;14.40;99.90;;;;;;4972983;28;20913;-63
2022/07/02 04:20:04;;;;;;;5.18;1.60;;;14.40;99.90;;;;;;4973101;28;20180;-63
2022/07/02 04:22:30;;;;;;;8.70;1.42;;;14.40;99.90;;;;;;4973013;28;20188;-63
2022/07/02 04:24:55;;;;;;;8.30;1.55;;;14.40;99.90;;;;;;4972307;28;20211;-62
2022/07/02 04:27:21;;;;;;;7.85;1.20;;;14.50;99.90;;;;;;4972895;28;20560;-63
2022/07/02 04:29:47;;;;;;;6.32;1.27;;;14.60;99.90;;;;;;4972898;28;20515;-63
2022/07/02 04:32:13;;;;;;;2.92;0.93;;;14.40;99.90;;;;;;4972614;28;20638;-63
2022/07/02 04:34:39;;;;;;;8.43;1.50;;;14.40;99.90;;;;;;4972200;28;20187;-63
2022/07/02 04:37:05;;;;;;;7.55;1.48;;;14.50;99.90;;;;;;4972204;28;20602;-63
2022/07/02 04:39:31;;;;;;;8.95;1.30;;;14.50;99.90;;;;;;4972520;28;20186;-62
2022/07/02 04:41:57;;;;;;;5.53;1.27;;;14.50;99.90;;;;;;4972028;28;20180;-62
2022/07/02 04:44:24;;;;;;;5.43;1.20;;;14.50;99.90;;;;;;4972519;28;20291;-64
2022/07/02 04:46:50;;;;;;;6.30;1.52;;;14.60;99.90;;;;;;4972123;28;20244;-61
2022/07/02 04:49:16;;;;;;;7.22;1.27;;;14.30;99.90;;;;;;4972188;28;20197;-61
2022/07/02 04:51:41;;;;;;;5.65;1.40;;;14.60;99.90;;;;;;4972075;28;20223;-61
2022/07/02 04:54:07;;;;;;;4.88;1.13;;;14.60;99.90;;;;;;4972320;28;20178;-61
2022/07/02 04:56:34;;;;;;;10.23;1.38;;;14.60;99.90;;;;;;4972264;28;20688;-60
2022/07/02 04:58:59;;;;;;;7.57;1.17;;;14.60;99.90;;;;;;4972575;28;20476;-61
2022/07/02 05:01:25;;;;;;;6.15;1.38;;;14.70;99.90;;;;;;4971777;28;20755;-61
2022/07/02 05:03:52;;;;;;;6.05;1.20;;;14.70;99.90;;;;;;4972618;28;20553;-61
2022/07/02 05:06:21;;;;;;;6.82;1.23;;;15.70;99.90;;;;;;4972068;28;20215;-63
2022/07/02 05:08:48;;;;;;;9.82;1.23;;;14.70;99.90;;;;;;4972386;28;20586;-62
2022/07/02 05:11:16;;;;;;;4.75;1.30;;;15.00;99.90;;;;;;4971830;28;20219;-62
2022/07/02 05:13:44;;;;;;;8.00;1.50;;;14.80;99.90;;;;;;4971860;28;20172;-62
2022/07/02 05:16:10;;;;;;;3.30;1.15;;;14.80;99.90;;;;;;4971912;28;20176;-62
2022/07/02 05:18:36;;;;;;;5.75;1.20;;;14.90;99.90;;;;;;4972206;28;20717;-62
2022/07/02 05:21:01;;;;;;;6.03;1.10;;;14.90;99.90;;;;;;4972162;28;20646;-62
2022/07/02 05:23:27;;;;;;;6.95;1.48;;;14.90;99.90;;;;;;4971990;28;20551;-61
2022/07/02 05:25:53;;;;;;;5.72;1.50;;;14.60;99.90;;;;;;4971645;28;20567;-63
2022/07/02 05:28:19;;;;;;;11.68;1.70;;;15.00;99.90;;;;;;4971478;28;20586;-63
2022/07/02 05:30:44;;;;;;;9.40;1.70;;;15.00;99.90;;;;;;4971840;28;20266;-63
2022/07/02 05:33:10;;;;;;;5.57;1.42;;;15.10;99.90;;;;;;4971884;28;20290;-63
2022/07/02 05:35:36;;;;;;;5.20;1.20;;;15.10;99.90;;;;;;4971661;28;20190;-63
2022/07/02 05:38:02;;;;;;;9.57;1.20;;;15.10;99.90;;;;;;4971776;28;20664;-63
2022/07/02 05:40:28;;;;;;;5.38;1.38;;;15.10;99.90;;;;;;4971287;28;20203;-63
2022/07/02 05:42:53;;;;;;;4.68;1.00;;;15.20;99.90;;;;;;4971765;28;20172;-63
2022/07/02 05:45:19;;;;;;;8.15;1.13;;;15.30;99.90;;;;;;4971192;28;20199;-63
2022/07/02 05:47:45;;;;;;;11.05;1.45;;;15.30;99.90;;;;;;4975419;28;20698;-63
2022/07/02 05:50:11;;;;;;;5.47;1.15;;;15.40;99.90;;;;;;4974825;28;20245;-63
2022/07/02 05:52:37;;;;;;;8.52;1.52;;;15.30;99.90;;;;;;4975822;28;20176;-63
2022/07/02 05:55:03;;;;;;;4.70;1.05;;;15.30;99.90;;;;;;4975745;28;20685;-64
2022/07/02 05:57:29;;;;;;;10.32;1.38;;;15.30;99.90;;;;;;4975394;28;20187;-63
2022/07/02 05:59:56;;;;;;;10.73;1.45;;;15.30;99.90;;;;;;4975775;28;20245;-63
2022/07/02 06:02:23;;;;;;;6.53;1.10;;;15.20;99.90;;;;;;4975507;28;20195;-63
2022/07/02 06:04:48;;;;;;;6.63;1.42;;;15.30;99.90;;;;;;4975363;28;20200;-63
2022/07/02 06:09:58;;;;;;;6.80;1.02;;;15.20;99.90;;;;;;4974928;28;20215;-63
2022/07/02 06:12:24;;;;;;;7.72;1.48;;;15.30;99.90;;;;;;4974335;28;20180;-65
2022/07/02 06:14:50;;;;;;;3.70;1.10;;;15.50;99.90;;;;;;4975192;28;20172;-65
2022/07/02 06:17:16;;;;;;;6.07;1.15;;;15.40;99.90;;;;;;4975275;28;20179;-65
2022/07/02 06:19:44;;;;;;;8.32;1.40;;;15.50;99.90;;;;;;4957678;28;20179;-65
2022/07/02 06:22:10;;;;;;;6.45;1.50;;;15.60;99.90;;;;;;4974882;28;20364;-65
2022/07/02 06:24:35;;;;;;;3.28;1.10;;;15.80;99.90;;;;;;4974715;28;20738;-65
2022/07/02 06:27:01;;;;;;;14.55;1.90;;;15.80;99.90;;;;;;4974495;28;20176;-64
2022/07/02 06:29:27;;;;;;;7.70;1.33;;;15.80;99.90;;;;;;4974708;28;20258;-65
2022/07/02 06:31:53;;;;;;;3.97;1.13;;;15.80;99.90;;;;;;4974660;28;20175;-65
2022/07/02 06:34:19;;;;;;;8.63;1.20;;;15.90;99.90;;;;;;4957499;28;20677;-65
2022/07/02 06:36:46;;;;;;;10.10;1.42;;;15.90;99.90;;;;;;4974216;28;20283;-64
2022/07/02 06:39:11;;;;;;;9.57;1.35;;;15.90;99.90;;;;;;4974693;28;20176;-65
2022/07/02 06:44:21;;;;;;;8.80;1.42;;;16.00;99.90;;;;;;4974812;28;20183;-64
2022/07/02 06:46:47;;;;;;;5.72;1.35;;;16.10;99.90;;;;;;4974542;28;20595;-64
2022/07/02 06:49:13;;;;;;;10.77;1.35;;;16.00;99.90;;;;;;4956561;28;20267;-64
2022/07/02 06:51:39;;;;;;;11.30;1.75;;;16.00;99.90;;;;;;4974913;28;20179;-64
2022/07/02 06:54:04;;;;;;;10.23;1.50;;;16.10;99.90;;;;;;4974374;28;20684;-64
2022/07/02 06:56:36;;;;;;;6.40;1.02;;;17.40;99.90;;;;;;4974235;28;20619;-64
2022/07/02 06:59:06;;;;;;;5.20;1.40;;;16.10;99.90;;;;;;4973941;28;20733;-64
2022/07/02 07:01:32;;;;;;;3.97;1.23;;;15.90;99.90;;;;;;4973919;28;20188;-64
2022/07/02 07:03:58;;;;;;;9.35;1.65;;;15.90;99.90;;;;;;4956984;28;20191;-64
2022/07/02 07:07:10;;;;;;;7.88;1.63;;;15.90;99.90;;;;;;4974504;28;20211;-65
2022/07/02 07:09:10;;;;;;;8.35;1.35;;;16.00;99.90;;;;;;4960357;28;20180;-64
2022/07/02 07:11:36;;;;;;;5.18;1.48;;;15.90;99.90;;;;;;4973984;28;20234;-64
2022/07/02 07:14:02;;;;;;;8.63;1.80;;;16.00;99.90;;;;;;4973815;28;20167;-64
2022/07/02 07:16:28;;;;;;;6.50;1.55;;;16.00;99.90;;;;;;4973752;28;20193;-64
2022/07/02 07:19:01;;;;;;;6.88;1.60;;;16.20;99.90;;;;;;4974021;28;20174;-64
2022/07/02 07:21:27;;;;;;;7.78;1.10;;;16.20;99.90;;;;;;4974085;28;20187;-62
2022/07/02 07:23:52;;;;;;;7.20;1.30;;;16.20;99.90;;;;;;4973746;28;20543;-59
2022/07/02 07:26:18;;;;;;;6.93;1.25;;;16.10;99.90;;;;;;4973214;28;20218;-60
2022/07/02 07:28:44;;;;;;;11.40;1.73;;;16.00;99.90;;;;;;4973889;28;20203;-61
2022/07/02 07:31:10;;;;;;;9.05;1.45;;;16.00;99.90;;;;;;4974134;28;20184;-60
2022/07/02 07:33:36;;;;;;;8.07;1.48;;;16.00;99.90;;;;;;4973764;28;20600;-60
2022/07/02 07:36:02;;;;;;;7.60;1.77;;;16.00;99.90;;;;;;4973035;28;20271;-62
2022/07/02 07:38:28;;;;;;;8.85;1.40;;;16.00;99.90;;;;;;4973243;28;20204;-61
2022/07/02 07:40:54;;;;;;;5.53;1.30;;;16.00;99.90;;;;;;4973995;28;20697;-60
2022/07/02 07:43:20;;;;;;;7.45;1.40;;;16.00;99.90;;;;;;4973939;28;20180;-58
2022/07/02 07:45:46;;;;;;;7.43;1.27;;;15.90;99.90;;;;;;4972899;28;20701;-58
2022/07/02 07:48:13;;;;;;;6.53;1.35;;;16.00;99.90;;;;;;4973720;28;20700;-58
2022/07/02 07:50:39;;;;;;;8.35;1.38;;;16.00;99.90;;;;;;4973531;28;20180;-59
2022/07/02 07:53:05;;;;;;;9.10;1.75;;;16.00;99.90;;;;;;4973707;28;20168;-58
2022/07/02 07:55:30;;;;;;;11.23;2.00;;;16.00;99.90;;;;;;4973230;28;20314;-59
2022/07/02 07:57:57;;;;;;;10.68;2.15;;;16.10;99.90;;;;;;4972764;28;20176;-58
2022/07/02 08:00:23;;;;;;;6.50;1.50;;;18.20;99.90;;;;;;4973010;28;20190;-59
2022/07/02 08:02:49;;;;;;;6.05;1.40;;;16.30;99.90;;;;;;4972554;28;20200;-58
2022/07/02 08:05:14;;;;;;;6.40;1.38;;;16.50;99.90;;;;;;4973289;28;20247;-58
2022/07/02 08:07:41;;;;;;;6.38;1.45;;;16.40;99.90;;;;;;4972830;28;20176;-58
2022/07/02 08:10:12;;;;;;;7.85;1.45;;;16.50;99.90;;;;;;4972108;28;20270;-59
2022/07/02 08:12:40;;;;;;;6.85;1.67;;;16.50;99.90;;;;;;4973527;28;20234;-59
2022/07/02 08:15:07;;;;;;;5.60;1.42;;;16.50;99.90;;;;;;4972484;28;20281;-59
2022/07/02 08:17:33;;;;;;;8.90;1.70;;;16.30;99.90;;;;;;4972715;28;20168;-58
2022/07/02 08:19:59;;;;;;;8.05;1.90;;;16.30;99.90;;;;;;4972572;28;20180;-63
2022/07/02 08:22:24;;;;;;;8.20;1.77;;;16.40;99.90;;;;;;4972808;28;20182;-60
2022/07/02 08:24:50;;;;;;;10.75;1.50;;;16.40;99.90;;;;;;4973417;28;20287;-59
2022/07/02 08:27:16;;;;;;;10.35;2.00;;;16.30;99.90;;;;;;4973384;28;20639;-59
2022/07/02 08:29:42;;;;;;;10.25;1.42;;;16.30;99.90;;;;;;4972909;28;20183;-59
2022/07/02 08:32:14;;;;;;;6.70;1.55;;;16.10;99.90;;;;;;5110118;27;20903;-60
2022/07/02 08:34:40;;;;;;;11.77;1.90;;;16.20;99.90;;;;;;5110621;28;20229;-61
2022/07/02 08:37:31;;;;;;;16.77;2.28;;;16.20;99.90;;;;;;5100014;28;20215;-63
2022/07/02 08:39:57;;;;;;;5.22;1.60;;;16.20;99.90;;;;;;5088369;28;20168;-58
2022/07/02 08:42:31;;;;;;;13.48;2.20;;;16.10;99.90;;;;;;5104780;28;20266;-59
2022/07/02 08:45:02;;;;;;;13.27;1.98;;;16.00;99.90;;;;;;5108809;28;20262;-59
2022/07/02 08:47:29;;;;;;;10.18;2.20;;;16.00;99.90;;;;;;5108529;28;20641;-59
2022/07/02 08:49:57;;;;;;;8.70;1.80;;;16.00;99.90;;;;;;5108239;28;20288;-57
2022/07/02 08:52:24;;;;;;;6.10;1.75;;;18.00;99.90;;;;;;5118605;28;20182;-56
2022/07/02 08:54:51;;;;;;;7.55;1.85;;;16.00;99.90;;;;;;5128810;28;20172;-57
2022/07/02 08:57:17;;;;;;;10.25;2.15;;;16.20;99.90;;;;;;5128536;27;20259;-58
2022/07/02 08:59:43;;;;;;;13.88;1.80;;;16.10;99.90;;;;;;5128603;27;20626;-57
2022/07/02 09:02:13;;;;;;;11.02;2.13;;;16.30;99.90;;;;;;5127091;28;20175;-59
2022/07/02 09:04:49;;;;;;;10.43;2.00;;;16.40;99.90;;;;;;5128647;27;20238;-59
2022/07/02 09:07:17;;;;;;;9.38;1.75;;;16.70;99.90;;;;;;5125862;27;20175;-59
2022/07/02 09:09:45;;;;;;;4.22;1.40;;;16.60;99.90;;;;;;5110685;28;20642;-59
2022/07/02 09:12:13;;;;;;;4.32;1.20;;;16.70;99.90;;;;;;5111334;28;20302;-59
2022/07/02 09:14:40;;;;;;;5.20;1.73;;;16.80;99.90;;;;;;5122907;28;20215;-59
2022/07/02 09:17:08;;;;;;;4.68;1.17;;;16.60;99.90;;;;;;5116921;27;20176;-59
2022/07/02 09:19:35;;;;;;;6.20;1.13;;;16.60;99.90;;;;;;5111099;28;20322;-59
2022/07/02 09:22:01;;;;;;;5.70;1.10;;;16.20;99.90;;;;;;5126686;27;20265;-59
2022/07/02 09:24:33;;;;;;;4.07;1.02;;;16.10;99.90;;;;;;5128552;27;20754;-59
2022/07/02 09:27:01;;;;;;;3.70;1.30;;;16.00;99.90;;;;;;5128217;27;20532;-59
2022/07/02 09:29:27;;;;;;;6.43;1.30;;;15.90;99.90;;;;;;5121235;27;20681;-59
2022/07/02 09:31:52;;;;;;;8.40;1.70;;;15.70;99.90;;;;;;5127252;27;20257;-60
2022/07/02 09:34:26;;;;;;;4.32;1.00;;;15.00;99.90;;;;;;5127517;27;20590;-62
2022/07/02 09:36:52;;;;;;;4.07;0.98;;;15.40;99.90;;;;;;5127886;27;20178;-60
2022/07/02 09:39:31;;;;;;;4.25;0.60;;;15.40;99.90;;;;;;5126704;28;20175;-60
2022/07/02 09:41:57;;;;;;;0.43;0.13;;;15.00;99.90;;;;;;5122113;28;20167;-60
2022/07/02 09:44:28;;;;;;;4.65;0.50;;;15.00;99.90;;;;;;5114151;28;20175;-60
2022/07/02 09:46:54;;;;;;;1.48;0.40;;;15.00;99.90;;;;;;5113697;28;20194;-60
2022/07/02 09:49:20;;;;;;;1.92;0.30;;;15.00;99.90;;;;;;5112027;28;20296;-60
2022/07/02 09:51:47;;;;;;;1.02;0.32;;;14.90;99.90;;;;;;5112544;28;20646;-60
2022/07/02 09:54:22;;;;;;;0.20;0.20;;;15.00;99.90;;;;;;5114259;28;20171;-60
2022/07/02 09:56:55;;;;;;;0.47;0.20;;;15.00;99.90;;;;;;5114144;28;20189;-60
2022/07/02 09:59:21;;;;;;;0.60;0.28;;;15.10;99.90;;;;;;5112512;28;20254;-60
2022/07/02 10:01:48;;;;;;;0.38;0.20;;;15.10;99.90;;;;;;5096178;28;20183;-60
2022/07/02 10:04:14;;;;;;;2.15;0.40;;;15.10;99.90;;;;;;5100466;28;20318;-60
2022/07/02 10:06:42;;;;;;;2.97;0.30;;;15.20;99.90;;;;;;5094799;28;20325;-59
2022/07/02 10:09:08;;;;;;;0.95;0.30;;;15.00;99.90;;;;;;5091481;28;20211;-59
2022/07/02 10:11:36;;;;;;;3.15;0.45;;;15.10;99.90;;;;;;5091883;28;20200;-59
2022/07/02 10:14:04;;;;;;;0.85;0.28;;;16.80;99.90;;;;;;5092421;28;20182;-60
2022/07/02 10:16:31;;;;;;;0.65;0.30;;;15.00;99.90;;;;;;5092315;28;20183;-59
2022/07/02 10:19:01;;;;;;;1.33;0.50;;;15.00;99.90;;;;;;5092269;28;20180;-59
2022/07/02 10:21:29;;;;;;;1.95;0.40;;;15.00;99.90;;;;;;5093338;28;20218;-59
2022/07/02 10:23:55;;;;;;;3.72;0.40;;;15.00;99.90;;;;;;5093466;28;20182;-60
2022/07/02 10:26:22;;;;;;;0.85;0.50;;;14.90;99.90;;;;;;5093328;28;20642;-59
2022/07/02 10:28:49;;;;;;;1.77;0.75;;;15.00;99.90;;;;;;5093170;28;20180;-59
2022/07/02 10:31:20;;;;;;;0.50;0.40;;;15.00;99.90;;;;;;5092904;28;20310;-59
2022/07/02 10:34:04;;;;;;;1.60;0.57;;;14.90;99.90;;;;;;5092788;28;20245;-59
2022/07/02 10:36:32;;;;;;;1.60;0.50;;;14.60;99.90;;;;;;5093049;28;20172;-59
2022/07/02 10:39:00;;;;;;;2.05;0.65;;;14.60;99.90;;;;;;5092969;28;20297;-59
2022/07/02 10:41:29;;;;;;;3.10;0.75;;;14.70;99.90;;;;;;5093021;28;20225;-59
2022/07/02 10:43:56;;;;;;;6.35;1.15;;;14.70;99.90;;;;;;5093252;28;20253;-59
2022/07/02 10:46:26;;;;;;;0.82;0.65;;;14.70;99.90;;;;;;5092853;28;20287;-59
2022/07/02 10:48:54;;;;;;;2.22;0.55;;;14.70;99.90;;;;;;5092657;28;20176;-59
2022/07/02 10:51:29;;;;;;;2.15;0.57;;;14.70;99.90;;;;;;5092612;28;20306;-59
2022/07/02 10:54:00;;;;;;;2.03;0.63;;;14.70;99.90;;;;;;5091626;28;20248;-61
2022/07/02 10:56:30;;;;;;;3.30;0.82;;;14.70;99.90;;;;;;5092383;28;20178;-60
2022/07/02 10:58:56;;;;;;;2.25;0.65;;;14.70;99.90;;;;;;5092586;28;20249;-59
2022/07/02 11:01:24;;;;;;;2.53;0.57;;;14.90;99.90;;;;;;5092408;28;20175;-59
2022/07/02 11:04:01;;;;;;;1.85;0.70;;;14.90;99.90;;;;;;5092524;28;20168;-59
2022/07/02 11:06:32;;;;;;;2.78;0.70;;;14.90;99.90;;;;;;5092285;28;20175;-59
2022/07/02 11:08:59;;;;;;;2.40;0.38;;;14.80;99.90;;;;;;5092325;28;20175;-59
2022/07/02 11:11:36;;;;;;;2.25;0.82;;;14.80;99.90;;;;;;5092074;28;20294;-59
2022/07/02 11:14:10;;;;;;;2.20;0.60;;;15.00;99.90;;;;;;5092056;28;20175;-59
2022/07/02 11:16:49;;;;;;;1.88;0.80;;;15.10;99.90;;;;;;5092023;28;20180;-59
2022/07/02 11:19:24;;;;;;;3.47;0.77;;;15.10;99.90;;;;;;5092028;28;20164;-59
2022/07/02 11:21:53;;;;;;;1.73;0.80;;;15.10;99.90;;;;;;5091987;28;20248;-59
2022/07/02 11:24:24;;;;;;;3.30;0.80;;;15.10;99.90;;;;;;5091961;28;20183;-59
2022/07/02 11:26:50;;;;;;;1.15;0.68;;;15.30;99.90;;;;;;5091845;28;20203;-60
2022/07/02 11:29:17;;;;;;;3.17;0.60;;;;;;;;;;5092064;28;20195;-61
2022/07/02 11:31:46;;;;;;;3.50;0.70;;;15.50;99.90;;;;;;5091659;28;20298;-59
2022/07/02 11:34:22;;;;;;;4.82;0.70;;;15.50;99.90;;;;;;5091927;28;20168;-59
2022/07/02 11:36:48;;;;;;;1.65;0.60;;;15.60;99.90;;;;;;5091808;28;20182;-60
2022/07/02 11:39:16;;;;;;;4.70;0.73;;;15.70;99.90;;;;;;5091741;28;20164;-59
2022/07/02 11:41:44;;;;;;;1.30;0.57;;;15.60;99.90;;;;;;5091847;28;20172;-59
2022/07/02 11:44:20;;;;;;;1.48;0.80;;;15.70;99.90;;;;;;5091496;28;20172;-59
2022/07/02 11:46:52;;;;;;;2.88;1.05;;;16.00;99.90;;;;;;5091822;28;20664;-60
2022/07/02 11:49:20;;;;;;;1.58;0.60;;;16.00;99.90;;;;;;5091645;28;20706;-60
2022/07/02 11:51:47;;;;;;;1.95;0.47;;;16.10;99.90;;;;;;5091565;28;20207;-60
2022/07/02 11:54:14;;;;;;;0.88;0.50;;;16.10;99.90;;;;;;5091541;28;20168;-60
2022/07/02 11:56:42;;;;;;;1.60;0.60;;;16.40;99.90;;;;;;5091427;28;20203;-60
2022/07/02 11:59:10;;;;;;;2.58;0.93;;;16.30;99.90;;;;;;5091462;28;20203;-60
2022/07/02 12:01:38;;;;;;;1.75;0.73;;;16.20;99.90;;;;;;5091287;28;20258;-60
2022/07/02 12:04:05;;;;;;;3.38;0.80;;;16.20;99.90;;;;;;5091273;28;20259;-60
2022/07/02 12:06:37;;;;;;;2.95;0.70;;;16.30;99.90;;;;;;5091017;28;20168;-60
2022/07/02 12:09:07;;;;;;;3.60;0.70;;;16.30;99.90;;;;;;5091256;28;20160;-60
2022/07/02 12:11:38;;;;;;;2.92;0.68;;;16.90;99.90;;;;;;5090948;28;20203;-60
2022/07/02 12:14:06;;;;;;;1.95;0.45;;;17.00;99.90;;;;;;5091144;28;20163;-60
2022/07/02 12:16:33;;;;;;;2.70;0.60;;;17.30;99.90;;;;;;5091018;28;20224;-60
2022/07/02 12:19:10;;;;;;;2.25;0.50;;;17.50;99.90;;;;;;5091462;28;20353;-60
2022/07/02 12:21:39;;;;;;;4.93;0.70;;;17.50;99.90;;;;;;5091096;28;20266;-60
2022/07/02 12:24:18;;;;;;;2.78;0.60;;;17.50;99.90;;;;;;5091114;28;20179;-60
2022/07/02 12:26:45;;;;;;;3.63;0.60;;;17.60;99.90;;;;;;5091082;28;20171;-60
2022/07/02 12:32:04;;;;;;;2.85;0.68;;;17.70;99.90;;;;;;5090859;28;20590;-60
2022/07/02 12:34:47;;;;;;;4.55;0.63;;;18.60;99.90;;;;;;5091050;28;20167;-60
2022/07/02 12:37:23;;;;;;;1.73;0.60;;;18.10;99.90;;;;;;5090913;28;20184;-60
2022/07/02 12:39:57;;;;;;;0.88;0.35;;;18.00;99.90;;;;;;5090925;28;20250;-60
2022/07/02 12:42:23;;;;;;;2.92;0.50;;;18.10;99.90;;;;;;5091006;28;20164;-60
2022/07/02 12:45:05;;;;;;;3.05;0.50;;;18.10;99.90;;;;;;5090862;28;20669;-61
2022/07/02 12:47:31;;;;;;;2.63;0.50;;;17.90;99.90;;;;;;5089548;28;20195;-60
2022/07/02 12:50:01;;;;;;;1.80;0.47;;;17.40;99.90;;;;;;5090823;28;20211;-60
2022/07/02 12:52:30;;;;;;;1.52;0.70;;;17.40;99.90;;;;;;5091070;28;20168;-60
2022/07/02 12:54:57;;;;;;;0.57;0.30;;;17.50;99.90;;;;;;5090737;28;20180;-60
2022/07/02 12:57:24;;;;;;;4.32;0.40;;;17.80;99.90;;;;;;5090728;28;20176;-60
2022/07/02 12:59:55;;;;;;;0.98;0.25;;;17.90;99.90;;;;;;5090715;28;20212;-58
2022/07/02 13:02:25;;;;;;;4.60;0.40;;;18.30;99.90;;;;;;5090647;28;20172;-59